Time;durP1;ratioP1;P1;durP2;ratioP2;P2;SDS_P1;SDS_P2;PMS_P1;PMS_P2;Temp;Humidity;BMP_temperature;BMP_pressure;BME280_temperature;BME280_humidity;BME280_pressure;Samples;Min_cycle;Max_cycle;Signal;HPM_P1;HPM_P2
2022/06/10 00:01:11;;;;;;;4.55;1.40;;;14.40;99.90;;;;;;5067009;28;20066;-78
2022/06/10 00:03:38;;;;;;;5.40;1.40;;;14.40;99.90;;;;;;5065743;28;20056;-78
2022/06/10 00:06:07;;;;;;;4.88;1.42;;;14.40;99.90;;;;;;5066539;28;20079;-80
2022/06/10 00:08:41;;;;;;;4.68;1.80;;;14.30;99.90;;;;;;5048760;28;20045;-80
2022/06/10 00:11:10;;;;;;;8.57;1.45;;;14.30;99.90;;;;;;5064445;28;20123;-79
2022/06/10 00:13:40;;;;;;;9.68;2.03;;;14.30;99.90;;;;;;5060767;28;20040;-80
2022/06/10 00:16:07;;;;;;;8.70;1.60;;;14.30;99.90;;;;;;5067204;28;20454;-80
2022/06/10 00:18:35;;;;;;;8.43;1.58;;;14.40;99.90;;;;;;5048199;28;20140;-80
2022/06/10 00:21:06;;;;;;;5.55;1.30;;;14.30;99.90;;;;;;5065637;28;20501;-80
2022/06/10 00:23:33;;;;;;;3.92;1.83;;;14.30;99.90;;;;;;5067030;28;20044;-79
2022/06/10 00:26:00;;;;;;;5.72;1.60;;;14.30;99.90;;;;;;5064709;28;20053;-80
2022/06/10 00:28:26;;;;;;;4.93;1.60;;;14.30;99.90;;;;;;5067404;28;20051;-80
2022/06/10 00:30:53;;;;;;;4.95;1.50;;;14.30;99.90;;;;;;5063557;28;20041;-79
2022/06/10 00:33:20;;;;;;;6.47;1.60;;;14.20;99.90;;;;;;5067246;28;20049;-80
2022/06/10 00:35:47;;;;;;;6.57;1.90;;;14.20;99.90;;;;;;5065226;28;20045;-78
2022/06/10 00:38:14;;;;;;;6.72;1.55;;;14.20;99.90;;;;;;5068067;28;20425;-78
2022/06/10 00:40:54;;;;;;;6.13;1.40;;;14.20;99.90;;;;;;5065724;28;20048;-80
2022/06/10 00:43:24;;;;;;;6.35;1.75;;;14.20;99.90;;;;;;5067721;28;20048;-79
2022/06/10 00:46:14;;;;;;;3.65;1.23;;;14.20;99.90;;;;;;5064643;28;20486;-77
2022/06/10 00:49:00;;;;;;;5.43;1.92;;;14.20;99.90;;;;;;5060656;28;20049;-80
2022/06/10 00:51:43;;;;;;;3.28;1.55;;;14.20;99.90;;;;;;5064365;28;20056;-78
2022/06/10 00:54:18;;;;;;;7.22;2.08;;;14.20;99.90;;;;;;5063813;28;20053;-79
2022/06/10 00:57:09;;;;;;;5.82;1.60;;;14.20;99.90;;;;;;5064320;28;20045;-79
2022/06/10 00:59:42;;;;;;;3.47;1.30;;;14.10;99.90;;;;;;5066149;28;20072;-78
2022/06/10 01:02:14;;;;;;;4.72;1.38;;;14.10;99.90;;;;;;5061089;28;20242;-79
2022/06/10 01:04:42;;;;;;;2.78;1.50;;;14.10;99.90;;;;;;5065738;28;20052;-78
2022/06/10 01:07:11;;;;;;;8.70;1.88;;;14.10;99.90;;;;;;5065126;28;20065;-77
2022/06/10 01:09:39;;;;;;;3.25;1.45;;;14.10;99.90;;;;;;5063777;28;20049;-79
2022/06/10 01:12:27;;;;;;;5.00;1.42;;;14.00;99.90;;;;;;5065246;28;20128;-80
2022/06/10 01:15:11;;;;;;;3.20;1.20;;;14.00;99.90;;;;;;5063195;28;20100;-78
2022/06/10 01:18:08;;;;;;;5.57;1.27;;;14.00;99.90;;;;;;5059728;28;20056;-79
2022/06/10 01:21:03;;;;;;;8.07;1.95;;;14.10;99.90;;;;;;5055466;28;20057;-79
2022/06/10 01:24:00;;;;;;;7.85;1.50;;;14.00;99.90;;;;;;5061669;28;20057;-79
2022/06/10 01:27:47;;;;;;;4.68;1.58;;;13.90;99.90;;;;;;5066435;28;20055;-80
2022/06/10 01:29:53;;;;;;;5.25;1.73;;;13.80;99.90;;;;;;5072609;28;20177;-78
2022/06/10 01:32:23;;;;;;;2.78;1.15;;;13.70;99.90;;;;;;5083008;28;20086;-79
2022/06/10 01:35:09;;;;;;;7.30;1.60;;;13.60;99.90;;;;;;5068678;28;20155;-79
2022/06/10 01:38:03;;;;;;;4.40;1.42;;;13.70;99.90;;;;;;5077306;28;20041;-80
2022/06/10 01:41:14;;;;;;;5.38;1.60;;;13.60;99.90;;;;;;5033860;28;20080;-80
2022/06/10 01:44:03;;;;;;;8.23;1.58;;;13.60;99.90;;;;;;4981157;28;20043;-79
2022/06/10 01:46:34;;;;;;;6.93;1.90;;;13.60;99.90;;;;;;5074336;28;20053;-80
2022/06/10 01:49:16;;;;;;;6.20;2.08;;;13.60;99.90;;;;;;5070423;28;20051;-80
2022/06/10 01:51:59;;;;;;;9.07;1.50;;;13.60;99.90;;;;;;5064824;28;20291;-78
2022/06/10 01:54:26;;;;;;;9.95;2.00;;;13.60;99.90;;;;;;5065841;28;20041;-79
2022/06/10 01:56:57;;;;;;;8.48;1.58;;;13.60;99.90;;;;;;5069422;28;20047;-80
2022/06/10 01:59:31;;;;;;;7.00;2.22;;;13.60;99.90;;;;;;5066406;28;20041;-80
2022/06/10 02:02:16;;;;;;;7.35;1.60;;;13.60;99.90;;;;;;5048356;28;20048;-77
2022/06/10 02:04:54;;;;;;;8.15;1.60;;;13.60;99.90;;;;;;5065171;28;20501;-78
2022/06/10 02:07:27;;;;;;;9.45;2.03;;;13.60;99.90;;;;;;5047347;28;20080;-77
2022/06/10 02:10:02;;;;;;;5.20;1.48;;;13.50;99.90;;;;;;5062934;28;20474;-79
2022/06/10 02:12:35;;;;;;;3.88;1.40;;;13.50;99.90;;;;;;5066938;28;20048;-80
2022/06/10 02:15:08;;;;;;;5.25;1.55;;;13.40;99.90;;;;;;5068389;28;20048;-78
2022/06/10 02:17:41;;;;;;;5.55;1.60;;;13.40;99.90;;;;;;5062165;28;20049;-80
2022/06/10 02:20:13;;;;;;;5.95;1.80;;;13.40;99.90;;;;;;5066095;28;20085;-78
2022/06/10 02:22:43;;;;;;;4.90;1.40;;;13.40;99.90;;;;;;5067369;28;20084;-77
2022/06/10 02:25:34;;;;;;;5.50;1.73;;;13.40;99.90;;;;;;5063506;28;20057;-78
2022/06/10 02:28:07;;;;;;;4.57;1.52;;;13.40;99.90;;;;;;5067613;28;20048;-78
2022/06/10 02:30:43;;;;;;;7.80;1.75;;;13.40;99.90;;;;;;5062013;28;20469;-78
2022/06/10 02:33:11;;;;;;;7.95;2.10;;;13.40;99.90;;;;;;5066454;28;20067;-78
2022/06/10 02:35:50;;;;;;;6.07;1.55;;;13.40;99.90;;;;;;5067274;28;20059;-79
2022/06/10 02:38:25;;;;;;;7.85;1.92;;;13.40;99.90;;;;;;5061907;28;20064;-78
2022/06/10 02:41:18;;;;;;;4.50;1.60;;;13.30;99.90;;;;;;5067265;28;20048;-79
2022/06/10 02:44:10;;;;;;;6.38;1.60;;;13.40;99.90;;;;;;5068208;28;20136;-82
2022/06/10 02:46:52;;;;;;;6.75;1.50;;;13.30;99.90;;;;;;5071604;28;20099;-81
2022/06/10 02:49:20;;;;;;;7.43;2.25;;;13.30;99.90;;;;;;5069266;28;20041;-81
2022/06/10 02:51:48;;;;;;;9.30;1.58;;;13.30;99.90;;;;;;5075091;28;20080;-81
2022/06/10 02:54:37;;;;;;;8.45;1.63;;;13.30;99.90;;;;;;5073430;28;20535;-80
2022/06/10 02:57:23;;;;;;;7.22;2.13;;;13.30;99.90;;;;;;5071291;28;20055;-81
2022/06/10 03:02:52;;;;;;;4.28;1.67;;;13.30;99.90;;;;;;5072252;28;20049;-80
2022/06/10 03:05:30;;;;;;;5.85;1.70;;;13.30;99.90;;;;;;5072834;28;20049;-81
2022/06/10 03:08:03;;;;;;;2.90;1.30;;;13.30;99.90;;;;;;5068237;28;20041;-80
2022/06/10 03:10:53;;;;;;;8.57;1.70;;;13.30;99.90;;;;;;5074431;28;20053;-80
2022/06/10 03:13:39;;;;;;;6.10;1.70;;;13.30;99.90;;;;;;5069417;28;20429;-81
2022/06/10 03:16:36;;;;;;;5.35;2.17;;;13.30;99.90;;;;;;5071694;28;20052;-81
2022/06/10 03:19:35;;;;;;;9.40;1.80;;;13.30;99.90;;;;;;5068050;28;20056;-81
2022/06/10 03:22:12;;;;;;;9.20;2.08;;;13.30;99.90;;;;;;5052996;28;20052;-81
2022/06/10 03:24:53;;;;;;;6.60;1.98;;;13.20;99.90;;;;;;5072451;28;20051;-78
2022/06/10 03:27:31;;;;;;;7.97;1.85;;;13.20;99.90;;;;;;5070465;28;20120;-81
2022/06/10 03:30:06;;;;;;;5.70;1.67;;;13.20;99.90;;;;;;5071366;28;20465;-81
2022/06/10 03:32:36;;;;;;;8.00;1.83;;;13.20;99.90;;;;;;5069985;28;20109;-80
2022/06/10 03:35:29;;;;;;;10.45;2.35;;;13.20;99.90;;;;;;5073453;28;20059;-80
2022/06/10 03:37:57;;;;;;;5.18;1.60;;;13.20;99.90;;;;;;5070482;28;20052;-81
2022/06/10 03:40:27;;;;;;;6.95;3.22;;;13.20;99.90;;;;;;5054561;28;20053;-81
2022/06/10 03:42:56;;;;;;;5.45;2.10;;;13.10;99.90;;;;;;5074413;28;20136;-80
2022/06/10 03:45:32;;;;;;;9.32;2.55;;;13.10;99.90;;;;;;5052839;28;20049;-80
2022/06/10 03:47:59;;;;;;;4.25;2.00;;;13.10;99.90;;;;;;5068932;28;20481;-81
2022/06/10 03:50:35;;;;;;;6.00;2.17;;;13.10;99.90;;;;;;5054837;28;20478;-80
2022/06/10 03:53:03;;;;;;;3.45;1.70;;;13.00;99.90;;;;;;5074115;28;20044;-81
2022/06/10 03:55:30;;;;;;;6.50;2.10;;;13.00;99.90;;;;;;5070591;28;20049;-81
2022/06/10 03:57:57;;;;;;;4.53;1.67;;;12.90;99.90;;;;;;5056510;28;20490;-80
2022/06/10 04:00:27;;;;;;;5.63;2.38;;;12.90;99.90;;;;;;5071768;28;20060;-81
2022/06/10 04:02:53;;;;;;;9.07;2.20;;;12.90;99.90;;;;;;5072362;28;20052;-81
2022/06/10 04:05:20;;;;;;;4.18;1.60;;;12.90;99.90;;;;;;5072373;28;20049;-80
2022/06/10 04:07:47;;;;;;;3.55;1.30;;;12.90;99.90;;;;;;5072117;28;20044;-81
2022/06/10 04:10:23;;;;;;;6.93;1.90;;;12.90;99.90;;;;;;5071558;28;20135;-81
2022/06/10 04:12:50;;;;;;;5.28;1.67;;;12.90;99.90;;;;;;5067236;28;20131;-79
2022/06/10 04:15:18;;;;;;;7.20;2.30;;;13.00;99.90;;;;;;5073605;28;20048;-80
2022/06/10 04:17:46;;;;;;;5.15;1.45;;;13.00;99.90;;;;;;5071355;28;20518;-81
2022/06/10 04:20:32;;;;;;;6.05;2.05;;;13.00;99.90;;;;;;5071485;28;20104;-80
2022/06/10 04:22:59;;;;;;;4.57;1.45;;;12.90;99.90;;;;;;5047922;28;20042;-81
2022/06/10 04:25:26;;;;;;;4.22;1.65;;;12.90;99.90;;;;;;5072412;28;20041;-81
2022/06/10 04:27:53;;;;;;;5.57;2.45;;;12.90;99.90;;;;;;5071445;28;20044;-81
2022/06/10 04:30:25;;;;;;;5.20;1.98;;;13.00;99.90;;;;;;5053279;28;20068;-81
2022/06/10 04:32:52;;;;;;;7.43;2.97;;;13.00;99.90;;;;;;5073394;28;20045;-81
2022/06/10 04:35:20;;;;;;;8.75;1.50;;;13.00;99.90;;;;;;5070887;28;20049;-81
2022/06/10 04:37:48;;;;;;;6.35;3.60;;;13.00;99.90;;;;;;5066457;28;20049;-81
2022/06/10 04:40:18;;;;;;;7.47;2.95;;;13.10;99.90;;;;;;5055526;28;20052;-81
2022/06/10 04:42:48;;;;;;;6.05;1.55;;;13.10;99.90;;;;;;5072400;28;20419;-81
2022/06/10 04:45:17;;;;;;;10.40;2.22;;;13.20;99.90;;;;;;5072160;28;20055;-80
2022/06/10 04:47:44;;;;;;;5.47;1.80;;;13.30;99.90;;;;;;5081583;28;20045;-79
2022/06/10 04:50:14;;;;;;;8.55;1.80;;;13.40;99.90;;;;;;5077460;28;20053;-80
2022/06/10 04:52:41;;;;;;;2.43;1.53;;;13.40;99.90;;;;;;5051664;28;20075;-80
2022/06/10 04:55:09;;;;;;;4.80;1.42;;;13.50;99.90;;;;;;5067489;28;20294;-78
2022/06/10 04:57:37;;;;;;;4.13;1.50;;;13.60;99.90;;;;;;5082728;28;20045;-81
2022/06/10 05:00:07;;;;;;;6.30;1.40;;;13.70;99.90;;;;;;5086528;28;20079;-80
2022/06/10 05:02:34;;;;;;;;;;;13.90;99.90;;;;;;5070474;28;20102;-80
2022/06/10 05:05:01;;;;;;;4.43;1.55;;;14.00;99.90;;;;;;5070430;28;19920;-80
2022/06/10 05:07:28;;;;;;;9.10;2.15;;;14.20;99.90;;;;;;5080446;28;20072;-81
2022/06/10 05:09:54;;;;;;;6.05;1.48;;;14.30;99.90;;;;;;5060717;28;20055;-81
2022/06/10 05:12:21;;;;;;;4.88;1.58;;;14.40;99.90;;;;;;5056302;28;20049;-81
2022/06/10 05:14:48;;;;;;;6.18;1.80;;;14.50;99.90;;;;;;5060048;28;20494;-80
2022/06/10 05:17:15;;;;;;;8.10;1.40;;;14.60;99.90;;;;;;5074481;28;20129;-81
2022/06/10 05:19:41;;;;;;;3.90;1.67;;;14.70;99.90;;;;;;5076453;28;20076;-79
2022/06/10 05:22:08;;;;;;;6.55;1.40;;;14.80;99.90;;;;;;5075485;28;20049;-81
2022/06/10 05:24:35;;;;;;;6.15;1.45;;;14.90;99.90;;;;;;5076011;28;20140;-80
2022/06/10 05:27:01;;;;;;;2.90;1.40;;;15.00;99.90;;;;;;5075721;28;20052;-80
2022/06/10 05:29:28;;;;;;;5.95;1.85;;;15.10;99.90;;;;;;5075244;28;20076;-81
2022/06/10 05:31:55;;;;;;;4.07;1.42;;;15.20;99.90;;;;;;5072792;28;20052;-81
2022/06/10 05:37:07;;;;;;;3.72;1.20;;;15.30;99.90;;;;;;5073455;28;20517;-80
2022/06/10 05:39:34;;;;;;;4.95;1.50;;;15.40;99.90;;;;;;5073865;28;20049;-81
2022/06/10 05:42:07;;;;;;;5.07;1.75;;;15.30;99.90;;;;;;5075575;28;20363;-81
2022/06/10 05:44:38;;;;;;;8.45;2.17;;;15.40;99.90;;;;;;5074742;28;20059;-81
2022/06/10 05:47:07;;;;;;;4.22;2.20;;;15.40;99.90;;;;;;5075205;28;20049;-82
2022/06/10 05:49:36;;;;;;;6.82;1.98;;;15.30;99.90;;;;;;5075950;28;20052;-81
2022/06/10 05:52:05;;;;;;;5.15;1.83;;;15.40;99.90;;;;;;5076301;28;20533;-81
2022/06/10 05:54:33;;;;;;;7.97;2.42;;;15.30;99.90;;;;;;5075258;28;20044;-80
2022/06/10 05:57:00;;;;;;;8.98;2.20;;;15.30;99.90;;;;;;5078321;28;20055;-82
2022/06/10 05:59:29;;;;;;;9.85;2.30;;;15.30;99.90;;;;;;5069153;28;20128;-81
2022/06/10 06:01:56;;;;;;;4.95;2.05;;;15.30;99.90;;;;;;5076234;28;20057;-81
2022/06/10 06:04:23;;;;;;;4.00;1.90;;;15.30;99.90;;;;;;5073329;28;20118;-81
2022/06/10 06:06:50;;;;;;;6.70;2.20;;;15.30;99.90;;;;;;5075085;28;20055;-81
2022/06/10 06:09:17;;;;;;;3.70;1.75;;;15.30;99.90;;;;;;5073499;28;20045;-81
2022/06/10 06:11:50;;;;;;;9.50;2.22;;;15.30;99.90;;;;;;5074323;28;20072;-82
2022/06/10 06:14:18;;;;;;;5.30;2.35;;;15.30;99.90;;;;;;5076658;28;20104;-79
2022/06/10 06:16:50;;;;;;;9.55;2.03;;;15.30;99.90;;;;;;5069342;28;20453;-80
2022/06/10 06:19:18;;;;;;;6.60;2.45;;;15.30;99.90;;;;;;5057233;28;20055;-81
2022/06/10 06:21:45;;;;;;;5.10;1.73;;;15.30;99.90;;;;;;5074343;28;20421;-79
2022/06/10 06:24:12;;;;;;;5.00;1.85;;;15.20;99.90;;;;;;5074905;28;20048;-81
2022/06/10 06:26:39;;;;;;;4.25;1.95;;;15.30;99.90;;;;;;5074789;28;20045;-79
2022/06/10 06:29:06;;;;;;;6.90;2.10;;;15.20;99.90;;;;;;5072774;28;20041;-81
2022/06/10 06:31:33;;;;;;;7.50;1.90;;;15.10;99.90;;;;;;5075867;28;20051;-81
2022/06/10 06:34:00;;;;;;;8.80;2.03;;;15.10;99.90;;;;;;5072791;28;20055;-80
2022/06/10 06:36:38;;;;;;;8.40;2.50;;;15.20;99.90;;;;;;5069833;28;20063;-81
2022/06/10 06:39:06;;;;;;;7.45;2.17;;;15.20;99.90;;;;;;5055784;28;20127;-80
2022/06/10 06:41:32;;;;;;;6.35;2.45;;;15.20;99.90;;;;;;5075237;28;20056;-80
2022/06/10 06:43:59;;;;;;;6.25;2.00;;;15.30;99.90;;;;;;5073443;28;20049;-81
2022/06/10 06:46:26;;;;;;;7.18;2.20;;;15.30;99.90;;;;;;5076039;28;20050;-79
2022/06/10 06:48:54;;;;;;;6.03;1.92;;;15.30;99.90;;;;;;5072349;28;20071;-81
2022/06/10 06:51:21;;;;;;;7.63;2.20;;;15.30;99.90;;;;;;5050801;28;20079;-81
2022/06/10 06:53:47;;;;;;;6.25;2.00;;;15.40;99.90;;;;;;5075601;28;20498;-80
2022/06/10 06:56:14;;;;;;;11.40;2.20;;;15.50;99.90;;;;;;5073577;28;20049;-79
2022/06/10 06:58:41;;;;;;;8.38;2.70;;;15.40;99.90;;;;;;5074373;28;20059;-81
2022/06/10 07:01:07;;;;;;;4.53;1.83;;;15.50;99.90;;;;;;5073771;28;20418;-81
2022/06/10 07:03:34;;;;;;;6.32;2.17;;;15.50;99.90;;;;;;5073451;28;20048;-80
2022/06/10 07:06:02;;;;;;;8.00;2.30;;;15.50;99.90;;;;;;5074827;28;20067;-81
2022/06/10 07:08:31;;;;;;;7.20;2.10;;;15.60;99.90;;;;;;5071608;28;20518;-80
2022/06/10 07:10:59;;;;;;;9.25;2.40;;;15.60;99.90;;;;;;5076096;28;20076;-79
2022/06/10 07:13:26;;;;;;;5.72;2.03;;;15.70;99.90;;;;;;5068484;28;20531;-81
2022/06/10 07:15:54;;;;;;;6.75;2.80;;;15.70;99.90;;;;;;5075499;28;20104;-79
2022/06/10 07:18:22;;;;;;;4.80;2.03;;;15.70;99.90;;;;;;5072010;28;20064;-79
2022/06/10 07:20:49;;;;;;;8.23;2.17;;;15.80;99.90;;;;;;5056321;28;20055;-78
2022/06/10 07:23:17;;;;;;;7.47;2.00;;;15.80;99.90;;;;;;5073245;28;20087;-79
2022/06/10 07:25:43;;;;;;;5.72;2.20;;;15.90;99.90;;;;;;5072882;28;20051;-80
2022/06/10 07:28:14;;;;;;;8.13;2.22;;;16.00;99.90;;;;;;5073741;28;20529;-80
2022/06/10 07:30:42;;;;;;;5.15;1.88;;;16.00;99.90;;;;;;5071291;28;20107;-80
2022/06/10 07:33:09;;;;;;;10.68;3.28;;;16.00;99.90;;;;;;5068213;28;20406;-80
2022/06/10 07:35:37;;;;;;;8.30;2.05;;;16.10;99.90;;;;;;5073553;28;20048;-79
2022/06/10 07:38:09;;;;;;;8.43;2.20;;;16.10;99.90;;;;;;5073194;28;20049;-78
2022/06/10 07:43:41;;;;;;;6.20;2.00;;;16.20;99.90;;;;;;5074290;28;20514;-80
2022/06/10 07:46:12;;;;;;;6.32;1.95;;;16.20;99.90;;;;;;5067591;28;20071;-81
2022/06/10 07:48:39;;;;;;;7.35;2.40;;;16.30;99.90;;;;;;5073124;28;20472;-80
2022/06/10 07:51:06;;;;;;;7.93;2.20;;;16.30;99.90;;;;;;5072890;28;20083;-81
2022/06/10 07:53:33;;;;;;;8.38;2.33;;;16.40;99.90;;;;;;5081178;28;20104;-79
2022/06/10 07:56:00;;;;;;;8.82;2.30;;;16.40;99.90;;;;;;5078258;28;20068;-81
2022/06/10 07:58:29;;;;;;;3.55;1.83;;;16.50;99.90;;;;;;5075305;28;20078;-80
2022/06/10 08:00:57;;;;;;;4.60;1.70;;;16.50;99.90;;;;;;5084478;28;20114;-79
2022/06/10 08:03:25;;;;;;;5.30;2.28;;;16.50;99.90;;;;;;5072870;28;20045;-80
2022/06/10 08:05:52;;;;;;;8.00;2.65;;;16.60;99.90;;;;;;5069182;28;20143;-79
2022/06/10 08:08:20;;;;;;;4.13;2.00;;;16.70;99.90;;;;;;5055031;28;20044;-80
2022/06/10 08:10:47;;;;;;;9.93;1.92;;;16.70;99.90;;;;;;5074101;28;20076;-81
2022/06/10 08:13:14;;;;;;;6.53;1.67;;;16.80;99.90;;;;;;5052675;28;20044;-80
2022/06/10 08:15:43;;;;;;;6.65;2.45;;;16.80;99.90;;;;;;5074221;28;20067;-79
2022/06/10 08:18:12;;;;;;;8.85;2.28;;;16.90;99.90;;;;;;5068330;28;20536;-80
2022/06/10 08:23:28;;;;;;;6.15;2.30;;;17.00;99.90;;;;;;5073103;28;20075;-80
2022/06/10 08:25:57;;;;;;;7.30;2.53;;;17.00;99.90;;;;;;5069985;28;20056;-80
2022/06/10 08:28:24;;;;;;;6.07;2.00;;;17.10;99.90;;;;;;5066522;28;20080;-80
2022/06/10 08:30:51;;;;;;;5.82;2.13;;;17.10;99.90;;;;;;5056921;28;20102;-80
2022/06/10 08:33:18;;;;;;;6.47;2.10;;;17.20;99.90;;;;;;5074120;28;20493;-80
2022/06/10 08:35:46;;;;;;;8.75;2.40;;;17.30;99.90;;;;;;5078208;28;20105;-81
2022/06/10 08:38:16;;;;;;;7.15;2.63;;;17.30;99.90;;;;;;5077840;28;20058;-80
2022/06/10 08:41:03;;;;;;;3.45;1.70;;;17.30;99.90;;;;;;5075775;28;20117;-81
2022/06/10 08:43:49;;;;;;;8.00;2.22;;;17.40;99.90;;;;;;5073848;28;20117;-81
2022/06/10 08:46:21;;;;;;;6.32;2.08;;;17.40;99.90;;;;;;5037411;28;20068;-80
2022/06/10 08:49:05;;;;;;;8.13;2.47;;;17.50;99.90;;;;;;5072628;28;20056;-78
2022/06/10 08:51:38;;;;;;;7.32;2.50;;;17.50;99.90;;;;;;5064200;28;20127;-82
2022/06/10 08:54:19;;;;;;;8.02;2.67;;;17.60;99.90;;;;;;5074405;28;20072;-78
2022/06/10 08:56:49;;;;;;;13.15;3.58;;;17.60;99.90;;;;;;5061810;28;20056;-79
2022/06/10 08:59:36;;;;;;;;;;;17.70;99.90;;;;;;5067602;28;20110;-78
2022/06/10 09:02:18;;;;;;;6.72;2.30;;;17.70;99.90;;;;;;5064958;28;19967;-79
2022/06/10 09:05:25;;;;;;;7.82;2.30;;;17.80;99.90;;;;;;5066780;28;20076;-79
2022/06/10 09:08:01;;;;;;;9.43;2.60;;;17.80;99.90;;;;;;5070495;28;20057;-78
2022/06/10 09:10:51;;;;;;;5.68;2.35;;;17.90;99.90;;;;;;5055491;28;20513;-80
2022/06/10 09:13:38;;;;;;;5.07;2.45;;;17.90;99.90;;;;;;5071723;28;20049;-78
2022/06/10 09:16:35;;;;;;;5.57;2.15;;;18.00;99.90;;;;;;5071682;28;20049;-80
2022/06/10 09:19:22;;;;;;;4.10;1.60;;;18.10;99.90;;;;;;5071989;28;20045;-79
2022/06/10 09:21:51;;;;;;;7.93;2.75;;;18.10;99.90;;;;;;5070078;28;20104;-80
2022/06/10 09:24:58;;;;;;;3.55;1.85;;;18.20;99.90;;;;;;5073079;28;20112;-79
2022/06/10 09:27:34;;;;;;;11.57;2.55;;;18.30;99.90;;;;;;5042446;28;20041;-79
2022/06/10 09:30:04;;;;;;;9.63;2.65;;;18.30;99.90;;;;;;5069669;28;20172;-79
2022/06/10 09:33:19;;;;;;;7.22;1.92;;;18.40;99.90;;;;;;5054377;28;20076;-79
2022/06/10 09:36:17;;;;;;;8.85;2.10;;;18.50;99.90;;;;;;4992942;28;20046;-79
2022/06/10 09:39:02;;;;;;;6.35;2.08;;;18.50;99.90;;;;;;5069335;28;20056;-79
2022/06/10 09:41:39;;;;;;;11.07;2.63;;;18.60;99.90;;;;;;5068074;28;20057;-78
2022/06/10 09:44:18;;;;;;;5.15;1.63;;;18.60;99.90;;;;;;5071646;28;20049;-79
2022/06/10 09:47:03;;;;;;;6.05;1.73;;;18.70;99.90;;;;;;5069872;28;20045;-78
2022/06/10 09:49:49;;;;;;;4.97;1.50;;;18.80;99.90;;;;;;5072557;28;20084;-78
2022/06/10 09:52:34;;;;;;;9.35;2.17;;;18.80;99.90;;;;;;5054879;28;20102;-78
2022/06/10 09:55:26;;;;;;;4.43;1.40;;;18.90;99.90;;;;;;5071228;28;20049;-79
2022/06/10 09:58:19;;;;;;;6.10;1.40;;;19.00;99.90;;;;;;5068934;28;20045;-78
2022/06/10 10:01:09;;;;;;;4.63;1.42;;;19.10;99.90;;;;;;5065239;28;20049;-80
2022/06/10 10:04:16;;;;;;;3.92;1.50;;;19.10;99.90;;;;;;5067678;28;20407;-78
2022/06/10 10:06:51;;;;;;;5.82;1.27;;;19.10;99.90;;;;;;5071619;28;20052;-80
2022/06/10 10:09:34;;;;;;;7.45;1.38;;;19.20;99.90;;;;;;5065669;28;20067;-77
2022/06/10 10:12:39;;;;;;;7.55;1.48;;;19.30;99.90;;;;;;5071453;28;20053;-77
2022/06/10 10:15:25;;;;;;;3.30;1.00;;;19.30;99.90;;;;;;5067492;28;20045;-79
2022/06/10 10:17:52;;;;;;;5.78;1.20;;;19.30;99.90;;;;;;5051571;28;20052;-78
2022/06/10 10:20:31;;;;;;;7.53;1.27;;;19.40;99.90;;;;;;5066646;28;20055;-79
2022/06/10 10:23:17;;;;;;;5.95;2.08;;;19.30;99.90;;;;;;5071475;28;20420;-79
2022/06/10 10:25:45;;;;;;;3.80;1.40;;;19.30;99.90;;;;;;5068753;28;20049;-79
2022/06/10 10:28:22;;;;;;;4.00;1.17;;;19.40;99.90;;;;;;5073606;28;20053;-80
2022/06/10 10:30:55;;;;;;;3.85;1.27;;;19.40;99.90;;;;;;5068948;28;20045;-79
2022/06/10 10:33:21;;;;;;;7.65;1.50;;;19.40;99.90;;;;;;5070223;28;20056;-78
2022/06/10 10:35:54;;;;;;;5.07;1.25;;;19.40;99.90;;;;;;5070590;28;20051;-79
2022/06/10 10:38:29;;;;;;;9.95;1.70;;;19.50;99.90;;;;;;5069606;28;20052;-78
2022/06/10 10:40:55;;;;;;;5.88;1.33;;;19.60;99.90;;;;;;5071940;28;20053;-76
2022/06/10 10:43:26;;;;;;;8.63;1.45;;;19.60;99.90;;;;;;5064772;28;20049;-79
2022/06/10 10:46:03;;;;;;;5.57;1.38;;;19.60;99.90;;;;;;5053696;28;20135;-80
2022/06/10 10:48:42;;;;;;;3.58;1.33;;;19.60;99.90;;;;;;5052884;28;20061;-79
2022/06/10 10:51:12;;;;;;;5.90;1.40;;;19.70;99.90;;;;;;5067693;28;20051;-78
2022/06/10 10:54:24;;;;;;;6.60;1.60;;;19.70;99.90;;;;;;5065235;28;20048;-79
2022/06/10 10:56:52;;;;;;;5.20;1.30;;;19.70;99.90;;;;;;5064938;28;20131;-79
2022/06/10 10:59:38;;;;;;;5.43;1.52;;;19.70;99.90;;;;;;5081321;28;20032;-78
2022/06/10 11:02:27;;;;;;;6.45;1.40;;;19.70;99.90;;;;;;5069088;28;20051;-79
2022/06/10 11:05:31;;;;;;;5.45;1.00;;;19.80;99.90;;;;;;5077531;28;20064;-77
2022/06/10 11:08:30;;;;;;;6.82;1.25;;;19.80;99.90;;;;;;5055960;28;20068;-79
2022/06/10 11:11:12;;;;;;;4.17;1.47;;;19.90;99.90;;;;;;5069311;28;20048;-80
2022/06/10 11:13:59;;;;;;;4.18;1.42;;;19.90;99.90;;;;;;5065963;28;20279;-80
2022/06/10 11:16:26;;;;;;;3.75;1.08;;;20.00;99.90;;;;;;5069675;28;20045;-78
2022/06/10 11:19:21;;;;;;;5.85;1.27;;;20.00;99.90;;;;;;5071925;28;20078;-79
2022/06/10 11:22:02;;;;;;;9.90;1.60;;;20.00;99.90;;;;;;5059874;28;20051;-80
2022/06/10 11:24:32;;;;;;;5.80;1.38;;;20.00;99.90;;;;;;5051764;28;20055;-78
2022/06/10 11:27:01;;;;;;;5.97;1.48;;;20.10;99.90;;;;;;5072511;28;20055;-78
2022/06/10 11:29:29;;;;;;;5.63;1.52;;;20.10;99.90;;;;;;5068750;28;20076;-80
2022/06/10 11:32:05;;;;;;;4.30;1.27;;;20.20;99.90;;;;;;5069934;28;20082;-79
2022/06/10 11:34:39;;;;;;;5.60;1.67;;;20.20;99.90;;;;;;5069995;28;20099;-80
2022/06/10 11:37:35;;;;;;;9.15;2.05;;;20.20;99.90;;;;;;5071020;28;20051;-79
2022/06/10 11:40:21;;;;;;;6.05;1.33;;;20.30;99.90;;;;;;5080312;28;20063;-78
2022/06/10 11:42:58;;;;;;;9.75;1.60;;;20.30;99.90;;;;;;5071122;28;20049;-78
2022/06/10 11:45:30;;;;;;;9.05;1.67;;;20.50;99.90;;;;;;5058363;28;20049;-79
2022/06/10 11:48:37;;;;;;;7.40;1.83;;;20.50;99.90;;;;;;5062958;28;20052;-79
2022/06/10 11:51:12;;;;;;;2.95;1.10;;;20.50;99.90;;;;;;5047397;28;20087;-77
2022/06/10 11:54:05;;;;;;;2.85;1.27;;;20.50;99.90;;;;;;5063374;28;20105;-78
2022/06/10 11:59:43;;;;;;;6.25;1.33;;;20.60;99.90;;;;;;5058932;28;20045;-79
2022/06/10 12:02:30;;;;;;;9.32;1.50;;;20.60;99.90;;;;;;5058379;28;20044;-79
2022/06/10 12:05:24;;;;;;;3.83;1.52;;;20.70;99.90;;;;;;5061446;28;20048;-78
2022/06/10 12:08:42;;;;;;;6.72;1.38;;;20.80;99.90;;;;;;5068345;28;20049;-79
2022/06/10 12:11:40;;;;;;;6.68;2.95;;;20.80;99.90;;;;;;4953935;29;20047;-78
2022/06/10 12:14:15;;;;;;;8.77;1.90;;;20.90;99.90;;;;;;5014558;28;20055;-79
2022/06/10 12:16:55;;;;;;;12.07;1.67;;;20.90;99.90;;;;;;5062398;28;20105;-78
2022/06/10 12:19:31;;;;;;;5.63;1.73;;;21.00;99.90;;;;;;5063895;28;20067;-77
2022/06/10 12:21:58;;;;;;;4.35;1.80;;;21.10;99.90;;;;;;5059405;28;20049;-78
2022/06/10 12:24:25;;;;;;;6.63;1.50;;;21.10;99.90;;;;;;5046325;28;20052;-79
2022/06/10 12:27:11;;;;;;;4.68;1.50;;;21.10;99.90;;;;;;5065552;28;20057;-78
2022/06/10 12:30:07;;;;;;;7.95;1.77;;;21.10;99.90;;;;;;5068115;28;20049;-76
2022/06/10 12:33:13;;;;;;;3.08;0.98;;;21.20;99.90;;;;;;5058932;28;20045;-77
2022/06/10 12:35:43;;;;;;;4.93;1.42;;;21.40;99.90;;;;;;5070677;28;20131;-80
2022/06/10 12:38:25;;;;;;;6.20;1.38;;;21.40;99.90;;;;;;5065970;28;20045;-80
2022/06/10 12:40:59;;;;;;;6.00;1.63;;;21.40;99.90;;;;;;5070815;28;20101;-80
2022/06/10 12:43:32;;;;;;;7.90;1.35;;;21.40;99.90;;;;;;5073689;28;20075;-80
2022/06/10 12:46:34;;;;;;;3.92;1.50;;;21.40;99.90;;;;;;5070405;28;20045;-80
2022/06/10 12:49:20;;;;;;;6.80;1.25;;;21.50;99.90;;;;;;5054379;28;20060;-80
2022/06/10 12:52:21;;;;;;;7.82;1.58;;;21.60;99.90;;;;;;5067138;28;20045;-79
2022/06/10 12:54:53;;;;;;;6.50;1.38;;;21.60;99.90;;;;;;5025460;28;20092;-80
2022/06/10 12:57:36;;;;;;;6.05;1.48;;;21.60;99.90;;;;;;5069678;28;20045;-79
2022/06/10 13:00:18;;;;;;;6.28;1.50;;;21.50;99.90;;;;;;5069892;28;20055;-80
2022/06/10 13:02:51;;;;;;;4.53;1.48;;;21.60;99.90;;;;;;5066882;28;20092;-79
2022/06/10 13:05:37;;;;;;;3.97;1.15;;;21.60;99.90;;;;;;5072231;28;20056;-81
2022/06/10 13:08:37;;;;;;;4.68;1.50;;;21.60;99.90;;;;;;5068247;28;20108;-80
2022/06/10 13:11:30;;;;;;;3.60;1.33;;;21.60;99.90;;;;;;5070895;28;20128;-80
2022/06/10 13:14:09;;;;;;;5.40;1.40;;;21.70;99.90;;;;;;5070801;28;20049;-77
2022/06/10 13:16:40;;;;;;;4.13;1.20;;;21.90;99.90;;;;;;5066372;28;20068;-80
2022/06/10 13:19:31;;;;;;;7.65;1.70;;;21.90;99.90;;;;;;5055981;28;20052;-79
2022/06/10 13:21:58;;;;;;;;;;;21.90;99.90;;;;;;5072003;28;20538;-80
2022/06/10 13:24:25;;;;;;;4.95;1.30;;;21.90;99.90;;;;;;5076576;28;19920;-78
2022/06/10 13:26:53;;;;;;;6.00;1.42;;;22.00;99.90;;;;;;5056757;28;20103;-79
2022/06/10 13:29:21;;;;;;;7.40;1.38;;;22.10;99.90;;;;;;5073823;28;20056;-79
2022/06/10 13:31:52;;;;;;;4.07;1.67;;;22.10;99.90;;;;;;5074851;28;20502;-79
2022/06/10 13:34:23;;;;;;;5.03;1.45;;;22.10;99.90;;;;;;5074583;28;20044;-78
2022/06/10 13:37:00;;;;;;;5.00;1.38;;;22.00;99.90;;;;;;5069211;28;20112;-77
2022/06/10 13:39:32;;;;;;;18.60;2.55;;;22.00;99.90;;;;;;5073430;28;20051;-77
2022/06/10 13:42:00;;;;;;;5.38;1.75;;;22.00;99.90;;;;;;5075447;28;20052;-78
2022/06/10 13:44:36;;;;;;;2.67;0.80;;;22.10;99.90;;;;;;5067288;28;20049;-79
2022/06/10 13:47:30;;;;;;;10.93;2.05;;;22.10;99.90;;;;;;5073810;28;20080;-80